Time;durP1;ratioP1;P1;durP2;ratioP2;P2;SDS_P1;SDS_P2;PMS_P1;PMS_P2;Temp;Humidity;BMP_temperature;BMP_pressure;BME280_temperature;BME280_humidity;BME280_pressure;Samples;Min_cycle;Max_cycle;Signal;HPM_P1;HPM_P2
2022/10/19 00:01:11;;;;;;;5.40;4.85;;;;;;;;;;10217454;28;20068;-62
2022/10/19 00:06:15;;;;;;;8.25;5.20;;;;;;;;;;10225706;28;20072;-62
2022/10/19 00:11:13;;;;;;;6.50;4.53;;;;;;;;;;10223635;28;20088;-62
2022/10/19 00:16:13;;;;;;;6.57;4.32;;;;;;;;;;10222667;28;20077;-63
2022/10/19 00:21:12;;;;;;;10.73;4.82;;;;;;;;;;10224655;28;20069;-63
2022/10/19 00:26:12;;;;;;;9.10;5.78;;;;;;;;;;10224209;28;20064;-61
2022/10/19 00:31:12;;;;;;;6.25;4.72;;;;;;;;;;10223300;28;20076;-62
2022/10/19 00:36:14;;;;;;;7.78;4.80;;;;;;;;;;10224124;28;20083;-62
2022/10/19 00:41:14;;;;;;;6.28;5.00;;;;;;;;;;10214013;28;20065;-61
2022/10/19 00:46:13;;;;;;;13.25;5.15;;;;;;;;;;10209528;28;20141;-62
2022/10/19 00:51:11;;;;;;;6.85;5.20;;;;;;;;;;10217007;28;20453;-61
2022/10/19 00:56:12;;;;;;;7.30;5.78;;;;;;;;;;10225682;28;20092;-62
2022/10/19 01:01:14;;;;;;;9.68;5.60;;;;;;;;;;10221554;28;20511;-61
2022/10/19 01:06:14;;;;;;;6.80;5.13;;;;;;;;;;10194908;28;20065;-64
2022/10/19 01:11:18;;;;;;;10.60;5.88;;;;;;;;;;10209437;28;20396;-63
2022/10/19 01:16:20;;;;;;;8.27;6.03;;;;;;;;;;10194955;28;20065;-64
2022/10/19 01:21:21;;;;;;;5.13;4.65;;;;;;;;;;10207200;28;20470;-63
2022/10/19 01:26:25;;;;;;;6.30;5.60;;;;;;;;;;10213517;28;20084;-63
2022/10/19 01:31:27;;;;;;;6.93;4.90;;;;;;;;;;10236265;28;20041;-63
2022/10/19 01:36:27;;;;;;;6.53;5.10;;;;;;;;;;10240674;28;20080;-62
2022/10/19 01:41:28;;;;;;;8.05;5.22;;;;;;;;;;10217222;28;20073;-64
2022/10/19 01:46:30;;;;;;;6.70;5.82;;;;;;;;;;10211754;28;20069;-62
2022/10/19 01:51:30;;;;;;;9.05;5.32;;;;;;;;;;10212444;28;20088;-64
2022/10/19 01:56:29;;;;;;;13.93;7.68;;;;;;;;;;10211855;28;20081;-62
2022/10/19 02:01:30;;;;;;;6.65;5.55;;;;;;;;;;10235439;28;20072;-61
2022/10/19 02:06:29;;;;;;;7.18;5.35;;;;;;;;;;10239001;28;20045;-62
2022/10/19 02:11:28;;;;;;;54.60;32.90;;;;;;;;;;10239660;28;20092;-61
2022/10/19 02:16:28;;;;;;;9.32;6.20;;;;;;;;;;10216136;28;20081;-61
2022/10/19 02:21:26;;;;;;;8.80;6.85;;;;;;;;;;10210515;28;20557;-61
2022/10/19 02:26:26;;;;;;;6.10;5.50;;;;;;;;;;10210684;28;20092;-61
2022/10/19 02:31:25;;;;;;;5.55;4.80;;;;;;;;;;10209057;28;20085;-62
2022/10/19 02:36:24;;;;;;;6.82;5.57;;;;;;;;;;10209774;28;20073;-61
2022/10/19 02:41:23;;;;;;;7.18;5.90;;;;;;;;;;10208954;28;20074;-63
2022/10/19 02:46:26;;;;;;;15.00;6.80;;;;;;;;;;10209565;28;20076;-63
2022/10/19 02:51:28;;;;;;;6.45;5.85;;;;;;;;;;10209865;28;20089;-61
2022/10/19 02:56:26;;;;;;;8.48;7.25;;;;;;;;;;10207544;28;20500;-61
2022/10/19 03:01:26;;;;;;;9.85;7.28;;;;;;;;;;10223508;28;20403;-62
2022/10/19 03:06:24;;;;;;;8.38;7.10;;;;;;;;;;10231728;28;20053;-61
2022/10/19 03:11:22;;;;;;;12.60;11.20;;;;;;;;;;10236857;28;20103;-61
2022/10/19 03:16:20;;;;;;;13.77;11.52;;;;;;;;;;10215939;28;20464;-62
2022/10/19 03:21:20;;;;;;;17.15;14.63;;;;;;;;;;10215383;28;20068;-63
2022/10/19 03:26:18;;;;;;;14.85;9.07;;;;;;;;;;10236340;28;20619;-62
2022/10/19 03:31:17;;;;;;;16.35;8.88;;;;;;;;;;10235720;28;20443;-63
2022/10/19 03:36:16;;;;;;;10.43;7.70;;;;;;;;;;10214270;28;20510;-63
2022/10/19 03:41:16;;;;;;;9.13;8.10;;;;;;;;;;10207643;28;20073;-61
2022/10/19 03:46:14;;;;;;;13.13;8.50;;;;;;;;;;10206011;28;20113;-62
2022/10/19 03:51:13;;;;;;;12.48;6.45;;;;;;;;;;10224134;28;20127;-63
2022/10/19 03:56:13;;;;;;;11.10;6.55;;;;;;;;;;10219518;28;20080;-63
2022/10/19 04:01:14;;;;;;;8.65;5.88;;;;;;;;;;10234657;28;20068;-62
2022/10/19 04:06:13;;;;;;;9.45;8.15;;;;;;;;;;10232238;28;20077;-62
2022/10/19 04:11:19;;;;;;;12.20;6.18;;;;;;;;;;10230470;28;20077;-62
2022/10/19 04:16:19;;;;;;;7.70;6.80;;;;;;;;;;10209628;28;20077;-62
2022/10/19 04:21:21;;;;;;;7.93;6.68;;;;;;;;;;10214228;28;20069;-61
2022/10/19 04:26:20;;;;;;;7.80;7.00;;;;;;;;;;10215878;28;20126;-63
2022/10/19 04:31:20;;;;;;;8.57;6.80;;;;;;;;;;10198851;28;20070;-63
2022/10/19 04:36:18;;;;;;;7.72;6.93;;;;;;;;;;10199801;28;20074;-63
2022/10/19 04:41:18;;;;;;;9.38;6.30;;;;;;;;;;10203502;28;20459;-63
2022/10/19 04:46:17;;;;;;;8.05;7.07;;;;;;;;;;10201492;28;20085;-61
2022/10/19 04:51:17;;;;;;;12.27;7.90;;;;;;;;;;10204838;28;20081;-61
2022/10/19 04:56:16;;;;;;;9.45;7.85;;;;;;;;;;10209386;28;20523;-61
2022/10/19 05:01:16;;;;;;;11.02;8.10;;;;;;;;;;10214026;28;20695;-62
2022/10/19 05:06:16;;;;;;;8.55;7.20;;;;;;;;;;10212287;28;20072;-62
2022/10/19 05:11:16;;;;;;;11.02;8.50;;;;;;;;;;10211771;28;20042;-62
2022/10/19 05:16:16;;;;;;;12.70;7.80;;;;;;;;;;10227159;28;20061;-62
2022/10/19 05:21:14;;;;;;;10.77;8.73;;;;;;;;;;10238654;28;20068;-62
2022/10/19 05:26:14;;;;;;;9.60;8.52;;;;;;;;;;10239145;28;20069;-62
2022/10/19 05:31:14;;;;;;;14.18;8.80;;;;;;;;;;10219713;28;20061;-63
2022/10/19 05:36:13;;;;;;;18.83;12.43;;;;;;;;;;10233394;28;20076;-60
2022/10/19 05:41:12;;;;;;;9.80;8.52;;;;;;;;;;10216378;28;20121;-61
2022/10/19 05:46:11;;;;;;;10.63;9.35;;;;;;;;;;10200229;28;20517;-61
2022/10/19 05:51:12;;;;;;;12.10;8.55;;;;;;;;;;10221756;28;20104;-63
2022/10/19 05:56:13;;;;;;;10.55;7.60;;;;;;;;;;10224656;28;20088;-63
2022/10/19 06:01:12;;;;;;;16.27;8.32;;;;;;;;;;10215053;28;20076;-61
2022/10/19 06:06:12;;;;;;;11.65;8.13;;;;;;;;;;10210609;28;20092;-62
2022/10/19 06:11:11;;;;;;;9.23;8.23;;;;;;;;;;10212233;28;20472;-62
2022/10/19 06:16:10;;;;;;;9.57;7.50;;;;;;;;;;10228600;28;20088;-62
2022/10/19 06:21:10;;;;;;;15.75;8.85;;;;;;;;;;10238339;28;20463;-62
2022/10/19 06:26:11;;;;;;;13.48;9.23;;;;;;;;;;10235433;28;20149;-64
2022/10/19 06:31:09;;;;;;;13.15;9.77;;;;;;;;;;10213940;28;20081;-63
2022/10/19 06:36:08;;;;;;;11.38;8.55;;;;;;;;;;10209383;28;20081;-63
2022/10/19 06:41:06;;;;;;;12.63;8.18;;;;;;;;;;10208497;28;20081;-63
2022/10/19 06:46:07;;;;;;;11.05;8.60;;;;;;;;;;10204681;28;20076;-63
2022/10/19 06:51:06;;;;;;;15.95;9.20;;;;;;;;;;10205001;28;20088;-62
2022/10/19 06:56:05;;;;;;;11.45;7.85;;;;;;;;;;10205850;28;20084;-62
2022/10/19 07:01:06;;;;;;;11.70;8.27;;;;;;;;;;10228738;28;20146;-62
2022/10/19 07:06:06;;;;;;;11.15;8.30;;;;;;;;;;10237194;28;20077;-61
2022/10/19 07:11:06;;;;;;;15.15;8.85;;;;;;;;;;10218164;28;20065;-61
2022/10/19 07:16:05;;;;;;;16.48;8.30;;;;;;;;;;10225566;28;20069;-61
2022/10/19 07:21:05;;;;;;;10.63;8.38;;;;;;;;;;10235447;28;20033;-62
2022/10/19 07:26:05;;;;;;;13.45;9.00;;;;;;;;;;10236339;28;20038;-62
2022/10/19 07:31:07;;;;;;;13.52;8.45;;;;;;;;;;10236144;28;20080;-61
2022/10/19 07:36:06;;;;;;;12.90;8.73;;;;;;;;;;10236683;28;20057;-62
2022/10/19 07:41:10;;;;;;;11.40;8.82;;;;;;;;;;10215607;28;20069;-62
2022/10/19 07:46:09;;;;;;;13.02;10.32;;;;;;;;;;10206847;28;20073;-63
2022/10/19 07:51:08;;;;;;;13.15;9.35;;;;;;;;;;10206685;28;20081;-62
2022/10/19 07:56:09;;;;;;;17.92;7.80;;;;;;;;;;10206586;28;20491;-61
2022/10/19 08:01:11;;;;;;;13.05;7.88;;;;;;;;;;10221135;28;20168;-62
2022/10/19 08:06:11;;;;;;;13.85;7.57;;;;;;;;;;10227644;28;20499;-61
2022/10/19 08:11:12;;;;;;;11.18;7.03;;;;;;;;;;10235581;28;20104;-63
2022/10/19 08:16:20;;;;;;;12.63;8.60;;;;;;;;;;10213609;28;20550;-62
2022/10/19 08:21:19;;;;;;;18.33;9.02;;;;;;;;;;10205578;28;20074;-62
2022/10/19 08:26:19;;;;;;;17.85;8.77;;;;;;;;;;10206022;28;20076;-63
2022/10/19 08:31:18;;;;;;;16.92;8.95;;;;;;;;;;10205072;28;20061;-61
2022/10/19 08:36:18;;;;;;;16.83;9.15;;;;;;;;;;10205847;28;20062;-61
2022/10/19 08:41:21;;;;;;;9.35;7.55;;;;;;;;;;10220973;28;20423;-61
2022/10/19 08:46:23;;;;;;;10.25;7.10;;;;;;;;;;10224872;28;20498;-61
2022/10/19 08:51:22;;;;;;;11.20;7.45;;;;;;;;;;10208485;28;20534;-61
2022/10/19 08:56:25;;;;;;;29.38;23.65;;;;;;;;;;10204306;28;20061;-62
2022/10/19 09:01:47;;;;;;;9.27;6.70;;;;;;;;;;10236990;28;20085;-62
2022/10/19 09:06:59;;;;;;;14.93;6.78;;;;;;;;;;10205980;28;20137;-62
2022/10/19 09:12:04;;;;;;;15.38;8.10;;;;;;;;;;10204901;28;20052;-63
2022/10/19 09:17:04;;;;;;;12.07;7.82;;;;;;;;;;10201728;28;20514;-62
2022/10/19 09:22:04;;;;;;;10.88;6.82;;;;;;;;;;10210121;28;20050;-63
2022/10/19 09:27:04;;;;;;;7.63;6.78;;;;;;;;;;10201796;28;20088;-62
2022/10/19 09:32:04;;;;;;;8.07;7.13;;;;;;;;;;10200540;28;20042;-62
2022/10/19 09:37:02;;;;;;;18.90;7.40;;;;;;;;;;10201054;28;20056;-62
2022/10/19 09:42:05;;;;;;;11.43;7.75;;;;;;;;;;10202109;28;20046;-61
2022/10/19 09:47:12;;;;;;;11.30;6.43;;;;;;;;;;10207740;28;20045;-61
2022/10/19 09:52:22;;;;;;;12.85;7.82;;;;;;;;;;10209247;28;20078;-64
2022/10/19 09:57:21;;;;;;;13.32;7.65;;;;;;;;;;10210908;28;20122;-62
2022/10/19 10:02:22;;;;;;;8.98;6.75;;;;;;;;;;10210098;28;20081;-62
2022/10/19 10:07:21;;;;;;;12.77;7.95;;;;;;;;;;10210733;28;20080;-62
2022/10/19 10:12:19;;;;;;;7.90;6.72;;;;;;;;;;10209780;28;20069;-63
2022/10/19 10:17:19;;;;;;;13.40;6.85;;;;;;;;;;10209772;28;20041;-63
2022/10/19 10:22:24;;;;;;;12.13;7.15;;;;;;;;;;10209917;28;20415;-63
2022/10/19 10:27:29;;;;;;;10.23;7.10;;;;;;;;;;10210208;28;20085;-63
2022/10/19 10:32:29;;;;;;;9.30;7.22;;;;;;;;;;10203857;28;20187;-62
2022/10/19 10:37:30;;;;;;;16.35;7.63;;;;;;;;;;10202695;28;20268;-62
2022/10/19 10:42:30;;;;;;;14.38;6.95;;;;;;;;;;10217800;28;20434;-63
2022/10/19 10:47:29;;;;;;;8.00;7.00;;;;;;;;;;10209567;28;20072;-62
2022/10/19 10:52:30;;;;;;;10.82;8.18;;;;;;;;;;10223396;28;20057;-61
2022/10/19 10:57:31;;;;;;;10.85;8.27;;;;;;;;;;10238055;28;20513;-63
2022/10/19 11:02:34;;;;;;;10.63;7.28;;;;;;;;;;10208437;28;20501;-62
2022/10/19 11:07:34;;;;;;;14.20;7.38;;;;;;;;;;10202135;28;20550;-61
2022/10/19 11:12:35;;;;;;;8.95;5.95;;;;;;;;;;10208025;28;20065;-62
2022/10/19 11:17:37;;;;;;;7.95;6.15;;;;;;;;;;10207841;28;20482;-61
2022/10/19 11:22:40;;;;;;;9.35;5.22;;;;;;;;;;10206609;28;20072;-61
2022/10/19 11:27:43;;;;;;;12.35;5.03;;;;;;;;;;10207461;28;20080;-63
2022/10/19 11:32:51;;;;;;;6.07;4.25;;;;;;;;;;10205637;28;20483;-62
2022/10/19 11:37:55;;;;;;;10.85;5.00;;;;;;;;;;10206619;28;20550;-62
2022/10/19 11:43:18;;;;;;;6.78;5.00;;;;;;;;;;10206057;28;20084;-63
2022/10/19 11:48:28;;;;;;;11.40;5.28;;;;;;;;;;10207140;28;20100;-61
2022/10/19 11:53:34;;;;;;;9.32;5.28;;;;;;;;;;10207509;28;20522;-62
2022/10/19 11:58:47;;;;;;;13.57;4.20;;;;;;;;;;10206134;28;20084;-61
2022/10/19 12:04:03;;;;;;;9.05;5.70;;;;;;;;;;10207168;28;20076;-63
2022/10/19 12:09:18;;;;;;;5.90;4.30;;;;;;;;;;10206519;28;20069;-61
2022/10/19 12:14:18;;;;;;;7.45;5.47;;;;;;;;;;10204747;28;20061;-62
2022/10/19 12:19:18;;;;;;;12.20;5.28;;;;;;;;;;10205820;28;20124;-63
2022/10/19 12:24:20;;;;;;;13.88;4.45;;;;;;;;;;10206315;28;20068;-62
2022/10/19 12:29:21;;;;;;;10.73;4.53;;;;;;;;;;10206205;28;20065;-62
2022/10/19 12:34:26;;;;;;;6.95;4.13;;;;;;;;;;10205995;28;20080;-62
2022/10/19 12:39:31;;;;;;;8.70;4.88;;;;;;;;;;10205632;28;20522;-62
2022/10/19 12:44:47;;;;;;;7.47;3.67;;;;;;;;;;10200618;28;20057;-62
2022/10/19 12:49:47;;;;;;;11.13;5.38;;;;;;;;;;10233353;28;20463;-62
2022/10/19 12:54:47;;;;;;;12.02;4.47;;;;;;;;;;10201000;28;20075;-62
2022/10/19 12:59:45;;;;;;;9.23;3.92;;;;;;;;;;10204075;28;20431;-62
2022/10/19 13:04:51;;;;;;;6.60;4.85;;;;;;;;;;10205121;28;20511;-61
2022/10/19 13:09:59;;;;;;;8.05;3.90;;;;;;;;;;10204442;28;20521;-61
2022/10/19 13:15:00;;;;;;;13.52;4.53;;;;;;;;;;10205654;28;20096;-62
2022/10/19 13:20:13;;;;;;;6.22;3.95;;;;;;;;;;10220132;28;20539;-63
2022/10/19 13:25:25;;;;;;;11.05;4.68;;;;;;;;;;10209778;28;20077;-67
2022/10/19 13:30:42;;;;;;;9.80;4.68;;;;;;;;;;10230716;28;20178;-66
2022/10/19 13:35:40;;;;;;;6.47;4.13;;;;;;;;;;10239716;28;20545;-66
2022/10/19 13:40:41;;;;;;;7.68;4.70;;;;;;;;;;10223749;28;20069;-65
2022/10/19 13:45:39;;;;;;;7.78;4.40;;;;;;;;;;10212739;28;20526;-66
2022/10/19 13:50:44;;;;;;;7.05;4.00;;;;;;;;;;10210187;28;20521;-65
2022/10/19 13:56:09;;;;;;;11.50;5.53;;;;;;;;;;10208092;28;20080;-65
2022/10/19 14:01:16;;;;;;;8.90;4.87;;;;;;;;;;10208322;28;20115;-65
2022/10/19 14:06:22;;;;;;;9.13;5.32;;;;;;;;;;10208809;28;20122;-65
2022/10/19 14:11:27;;;;;;;9.70;5.05;;;;;;;;;;10210879;28;20084;-66
2022/10/19 14:16:26;;;;;;;8.68;6.05;;;;;;;;;;10210305;28;20084;-66
2022/10/19 14:21:31;;;;;;;11.88;6.95;;;;;;;;;;10210764;28;20081;-66
2022/10/19 14:26:30;;;;;;;9.38;6.15;;;;;;;;;;10210373;28;20081;-68
2022/10/19 14:31:33;;;;;;;11.75;6.53;;;;;;;;;;10233489;28;20045;-66
2022/10/19 14:36:34;;;;;;;11.45;7.47;;;;;;;;;;10238619;28;20529;-65
2022/10/19 14:41:34;;;;;;;19.55;7.43;;;;;;;;;;10238621;28;20100;-66
2022/10/19 14:46:39;;;;;;;11.25;7.43;;;;;;;;;;10237927;28;20521;-66
2022/10/19 14:51:42;;;;;;;13.82;9.20;;;;;;;;;;10212204;28;20077;-66
2022/10/19 14:56:43;;;;;;;18.13;9.45;;;;;;;;;;10209784;28;20080;-65
2022/10/19 15:01:48;;;;;;;17.98;10.55;;;;;;;;;;10234627;28;20080;-66
2022/10/19 15:06:46;;;;;;;17.48;10.45;;;;;;;;;;10223883;28;20503;-66
2022/10/19 15:11:45;;;;;;;12.60;7.88;;;;;;;;;;10236458;28;20042;-65
2022/10/19 15:16:46;;;;;;;13.43;7.43;;;;;;;;;;10210863;28;20458;-65
2022/10/19 15:21:45;;;;;;;9.95;6.28;;;;;;;;;;10208038;28;20076;-65
2022/10/19 15:26:49;;;;;;;10.40;5.75;;;;;;;;;;10208067;28;20519;-65
2022/10/19 15:32:21;;;;;;;9.70;5.22;;;;;;;;;;10203609;28;20066;-65
2022/10/19 15:37:20;;;;;;;8.60;6.40;;;;;;;;;;10206109;28;20464;-65
2022/10/19 15:42:36;;;;;;;12.55;6.45;;;;;;;;;;10206187;28;20090;-65
2022/10/19 15:47:36;;;;;;;7.60;6.03;;;;;;;;;;10201129;28;20077;-66
2022/10/19 15:52:34;;;;;;;11.57;6.68;;;;;;;;;;10206937;28;20088;-65
2022/10/19 15:57:33;;;;;;;10.73;5.97;;;;;;;;;;10206433;28;20049;-65
2022/10/19 16:02:32;;;;;;;9.27;6.15;;;;;;;;;;10205476;28;20095;-65
2022/10/19 16:07:34;;;;;;;12.27;6.20;;;;;;;;;;10205425;28;20077;-66
2022/10/19 16:12:32;;;;;;;10.13;6.93;;;;;;;;;;10201053;28;20045;-66
2022/10/19 16:17:31;;;;;;;9.80;6.45;;;;;;;;;;10205032;28;20068;-66
2022/10/19 16:22:29;;;;;;;13.18;6.68;;;;;;;;;;10205523;28;20076;-66
2022/10/19 16:27:29;;;;;;;10.88;6.75;;;;;;;;;;10200372;28;20064;-65
2022/10/19 16:32:27;;;;;;;11.45;7.60;;;;;;;;;;10201175;28;20033;-66
2022/10/19 16:37:25;;;;;;;12.60;10.10;;;;;;;;;;10204672;28;20086;-66
2022/10/19 16:42:24;;;;;;;14.55;7.00;;;;;;;;;;10207048;28;20065;-66
2022/10/19 16:47:29;;;;;;;14.13;7.68;;;;;;;;;;10220678;28;20068;-67
2022/10/19 16:52:27;;;;;;;9.65;6.35;;;;;;;;;;10232760;28;20060;-66
2022/10/19 16:57:28;;;;;;;10.27;6.85;;;;;;;;;;10232243;28;20073;-66
2022/10/19 17:02:31;;;;;;;10.90;6.03;;;;;;;;;;10224743;28;20073;-66
2022/10/19 17:07:30;;;;;;;11.45;6.18;;;;;;;;;;10203320;28;20076;-66
2022/10/19 17:12:31;;;;;;;7.55;4.75;;;;;;;;;;10215712;28;20081;-66
2022/10/19 17:17:32;;;;;;;11.57;5.70;;;;;;;;;;10211007;28;20073;-66
2022/10/19 17:22:31;;;;;;;10.65;6.72;;;;;;;;;;10229132;28;20088;-67
2022/10/19 17:27:29;;;;;;;13.02;5.63;;;;;;;;;;10231288;28;20084;-66
2022/10/19 17:32:28;;;;;;;7.45;5.38;;;;;;;;;;10231135;28;20050;-66
2022/10/19 17:37:28;;;;;;;8.77;5.63;;;;;;;;;;10230396;28;20085;-66
2022/10/19 17:42:26;;;;;;;9.45;5.45;;;;;;;;;;10218829;28;20076;-65
2022/10/19 17:47:24;;;;;;;9.95;4.78;;;;;;;;;;10224034;28;20072;-65
2022/10/19 17:52:25;;;;;;;7.82;4.63;;;;;;;;;;10222611;28;20482;-65
2022/10/19 17:57:26;;;;;;;7.57;4.88;;;;;;;;;;10202415;28;20523;-67
2022/10/19 18:02:24;;;;;;;8.43;3.88;;;;;;;;;;10212272;28;20081;-66
2022/10/19 18:07:24;;;;;;;8.88;4.88;;;;;;;;;;10231517;28;20091;-67
2022/10/19 18:12:22;;;;;;;9.05;4.45;;;;;;;;;;10219342;28;20065;-66
2022/10/19 18:17:22;;;;;;;10.50;4.25;;;;;;;;;;10230735;28;20573;-67
2022/10/19 18:22:25;;;;;;;11.43;5.27;;;;;;;;;;10231961;28;20084;-66
2022/10/19 18:27:23;;;;;;;9.15;3.88;;;;;;;;;;10237488;28;20088;-66
2022/10/19 18:32:23;;;;;;;7.95;4.50;;;;;;;;;;10232697;28;20050;-67
2022/10/19 18:37:21;;;;;;;5.88;4.38;;;;;;;;;;10232038;28;20088;-66
2022/10/19 18:42:21;;;;;;;5.78;4.72;;;;;;;;;;10237519;28;20073;-67
2022/10/19 18:47:24;;;;;;;7.43;4.50;;;;;;;;;;10236931;28;20443;-67
2022/10/19 18:52:22;;;;;;;7.68;4.13;;;;;;;;;;10237017;28;20053;-66
2022/10/19 18:57:21;;;;;;;9.43;5.28;;;;;;;;;;10229436;28;20065;-66
2022/10/19 19:02:20;;;;;;;7.65;4.40;;;;;;;;;;10216327;28;20081;-66
2022/10/19 19:07:34;;;;;;;5.22;4.07;;;;;;;;;;10210551;28;20072;-67
2022/10/19 19:12:32;;;;;;;4.47;3.80;;;;;;;;;;10225191;28;20100;-66
2022/10/19 19:17:31;;;;;;;5.32;4.28;;;;;;;;;;10227470;28;21463;-67
2022/10/19 19:22:29;;;;;;;5.63;4.00;;;;;;;;;;10222895;28;20081;-67
2022/10/19 19:27:29;;;;;;;5.20;3.85;;;;;;;;;;10233899;28;20486;-66
2022/10/19 19:32:29;;;;;;;9.48;4.00;;;;;;;;;;10236254;28;20069;-65
2022/10/19 19:37:28;;;;;;;9.30;4.88;;;;;;;;;;10207360;28;20522;-65
2022/10/19 19:42:27;;;;;;;8.05;3.97;;;;;;;;;;10211567;28;20083;-66
2022/10/19 19:47:26;;;;;;;7.10;3.85;;;;;;;;;;10225690;28;20057;-66
2022/10/19 19:52:24;;;;;;;10.52;4.00;;;;;;;;;;10206191;28;20074;-66
2022/10/19 19:57:25;;;;;;;13.75;4.60;;;;;;;;;;10209796;28;20077;-68
2022/10/19 20:02:23;;;;;;;13.57;5.22;;;;;;;;;;10232463;28;20073;-68
2022/10/19 20:07:25;;;;;;;6.50;4.90;;;;;;;;;;10235675;28;20079;-64
2022/10/19 20:12:23;;;;;;;5.20;4.28;;;;;;;;;;10205419;28;20077;-67
2022/10/19 20:17:23;;;;;;;7.07;3.85;;;;;;;;;;10205573;28;20074;-65
2022/10/19 20:22:24;;;;;;;4.95;3.72;;;;;;;;;;10227563;28;20128;-66
2022/10/19 20:27:25;;;;;;;8.63;4.43;;;;;;;;;;10203443;28;20070;-65
2022/10/19 20:32:23;;;;;;;6.40;4.10;;;;;;;;;;10202200;28;20073;-65
2022/10/19 20:37:24;;;;;;;7.55;4.57;;;;;;;;;;10201665;28;20081;-66
2022/10/19 20:42:23;;;;;;;4.82;4.13;;;;;;;;;;10202326;28;20093;-66
2022/10/19 20:47:21;;;;;;;7.85;4.00;;;;;;;;;;10203036;28;20081;-65
2022/10/19 20:52:19;;;;;;;6.22;3.78;;;;;;;;;;10205185;28;20157;-66
2022/10/19 20:57:19;;;;;;;5.40;3.55;;;;;;;;;;10204067;28;20077;-66
2022/10/19 21:02:17;;;;;;;6.75;4.10;;;;;;;;;;10204739;28;20082;-66
2022/10/19 21:07:15;;;;;;;5.82;3.90;;;;;;;;;;10205037;28;20506;-66
2022/10/19 21:12:14;;;;;;;7.18;4.45;;;;;;;;;;10233302;28;20075;-66
2022/10/19 21:17:13;;;;;;;8.25;4.95;;;;;;;;;;10233425;28;20064;-66
2022/10/19 21:22:12;;;;;;;4.97;4.47;;;;;;;;;;10233443;28;20085;-66
2022/10/19 21:27:11;;;;;;;4.15;3.47;;;;;;;;;;10204549;28;20077;-66
2022/10/19 21:32:09;;;;;;;9.13;3.35;;;;;;;;;;10204884;28;20077;-66
2022/10/19 21:37:09;;;;;;;5.45;3.97;;;;;;;;;;10205108;28;20529;-66
2022/10/19 21:42:07;;;;;;;7.63;3.67;;;;;;;;;;10239968;28;20113;-64
2022/10/19 21:47:06;;;;;;;5.75;3.85;;;;;;;;;;10241002;28;20052;-66
2022/10/19 21:52:05;;;;;;;8.80;5.35;;;;;;;;;;10240661;28;20049;-65
2022/10/19 21:57:04;;;;;;;9.52;5.18;;;;;;;;;;10240514;28;20066;-65
2022/10/19 22:02:03;;;;;;;5.90;4.40;;;;;;;;;;10239561;28;20076;-65
2022/10/19 22:07:01;;;;;;;6.82;4.70;;;;;;;;;;10213868;28;20077;-66
2022/10/19 22:11:59;;;;;;;6.10;4.07;;;;;;;;;;10208163;28;20146;-66
2022/10/19 22:16:59;;;;;;;4.93;4.20;;;;;;;;;;10239369;28;20049;-65
2022/10/19 22:21:57;;;;;;;9.73;4.80;;;;;;;;;;10240208;28;20073;-68
2022/10/19 22:26:55;;;;;;;5.60;3.88;;;;;;;;;;10214183;28;20486;-66
2022/10/19 22:31:54;;;;;;;5.88;3.95;;;;;;;;;;10207236;28;20411;-66
2022/10/19 22:36:53;;;;;;;14.00;5.25;;;;;;;;;;10237621;28;20076;-66
2022/10/19 22:41:52;;;;;;;5.63;3.85;;;;;;;;;;10238598;28;20084;-64
2022/10/19 22:46:50;;;;;;;6.35;4.00;;;;;;;;;;10222568;28;20041;-64
2022/10/19 22:51:48;;;;;;;5.13;4.57;;;;;;;;;;10211085;28;20557;-65
2022/10/19 22:56:48;;;;;;;11.50;4.70;;;;;;;;;;10209562;28;20103;-65
2022/10/19 23:01:46;;;;;;;7.00;4.57;;;;;;;;;;10209345;28;20065;-65
2022/10/19 23:06:44;;;;;;;7.25;5.00;;;;;;;;;;10209015;28;20045;-65
2022/10/19 23:11:43;;;;;;;7.68;5.97;;;;;;;;;;10235316;28;20482;-65
2022/10/19 23:16:42;;;;;;;11.20;5.65;;;;;;;;;;10237359;28;20049;-65
2022/10/19 23:21:40;;;;;;;6.20;5.60;;;;;;;;;;10211216;28;20073;-66
2022/10/19 23:26:39;;;;;;;10.32;5.63;;;;;;;;;;10208847;28;20073;-65
2022/10/19 23:31:37;;;;;;;10.48;5.57;;;;;;;;;;10208496;28;20076;-66
2022/10/19 23:36:37;;;;;;;12.05;5.35;;;;;;;;;;10208195;28;20133;-66
2022/10/19 23:41:35;;;;;;;11.02;6.30;;;;;;;;;;10208279;28;20073;-64
2022/10/19 23:46:33;;;;;;;9.32;6.07;;;;;;;;;;10207756;28;20074;-65
2022/10/19 23:51:32;;;;;;;7.35;5.75;;;;;;;;;;10206727;28;20510;-64
2022/10/19 23:56:31;;;;;;;9.38;5.57;;;;;;;;;;10207474;28;20104;-64
